createdAt,value
2018-05-19T00:01:58.082Z,12.90
2018-05-19T00:04:24.727Z,12.80
2018-05-19T00:06:51.162Z,12.90
2018-05-19T00:09:17.509Z,12.90
2018-05-19T00:11:43.904Z,12.70
2018-05-19T00:14:10.245Z,12.80
2018-05-19T00:16:36.606Z,12.70
2018-05-19T00:19:02.950Z,12.80
2018-05-19T00:21:30.350Z,12.60
2018-05-19T00:23:56.729Z,12.60
2018-05-19T00:26:23.104Z,12.50
2018-05-19T00:28:49.432Z,12.50
2018-05-19T00:31:15.845Z,12.50
2018-05-19T00:33:42.195Z,12.60
2018-05-19T00:36:08.570Z,12.40
2018-05-19T00:38:34.913Z,12.30
2018-05-19T00:41:01.269Z,12.50
2018-05-19T00:43:27.654Z,12.50
2018-05-19T00:45:54.037Z,12.50
2018-05-19T00:48:20.434Z,12.70
2018-05-19T00:50:46.859Z,12.60
2018-05-19T00:53:13.903Z,12.50
2018-05-19T00:55:40.283Z,12.40
2018-05-19T00:58:06.633Z,12.40
2018-05-19T01:00:32.982Z,12.70
2018-05-19T01:02:59.369Z,12.60
2018-05-19T01:05:27.204Z,12.70
2018-05-19T01:07:53.571Z,12.60
2018-05-19T01:10:21.489Z,12.60
2018-05-19T01:12:47.858Z,12.50
2018-05-19T01:15:14.237Z,12.70
2018-05-19T01:17:40.696Z,12.70
2018-05-19T01:20:07.017Z,12.70
2018-05-19T01:22:33.411Z,12.50
2018-05-19T01:25:00.289Z,12.40
2018-05-19T01:27:27.749Z,12.40
2018-05-19T01:29:54.192Z,12.40
2018-05-19T01:32:20.544Z,12.30
2018-05-19T01:34:47.771Z,12.30
2018-05-19T01:37:14.154Z,12.20
2018-05-19T01:39:40.534Z,12.30
2018-05-19T01:42:07.746Z,11.90
2018-05-19T01:44:34.161Z,11.90
2018-05-19T01:47:00.556Z,11.80
2018-05-19T01:49:26.895Z,11.80
2018-05-19T01:51:53.282Z,12.00
2018-05-19T01:54:19.656Z,12.00
2018-05-19T01:56:46.021Z,12.00
2018-05-19T01:59:12.408Z,11.80
2018-05-19T02:01:39.297Z,11.80
2018-05-19T02:04:05.710Z,12.00
2018-05-19T02:06:32.076Z,12.00
2018-05-19T02:08:58.461Z,11.80
2018-05-19T02:11:24.872Z,11.90
2018-05-19T02:13:51.238Z,11.90
2018-05-19T02:16:17.598Z,12.00
2018-05-19T02:18:43.949Z,11.90
2018-05-19T02:21:10.302Z,11.90
2018-05-19T02:23:37.467Z,12.00
2018-05-19T02:26:03.837Z,11.90
2018-05-19T02:28:30.253Z,12.00
2018-05-19T02:30:56.614Z,11.80
2018-05-19T02:33:23.077Z,11.80
2018-05-19T02:35:49.456Z,11.60
2018-05-19T02:38:15.824Z,11.70
2018-05-19T02:40:42.572Z,11.80
2018-05-19T02:43:09.005Z,11.70
2018-05-19T02:45:35.363Z,11.70
2018-05-19T02:48:01.753Z,11.70
2018-05-19T02:50:28.097Z,11.50
2018-05-19T02:52:55.230Z,11.80
2018-05-19T02:55:22.209Z,11.70
2018-05-19T02:57:48.585Z,11.80
2018-05-19T03:00:14.944Z,11.90
2018-05-19T03:02:41.454Z,11.70
2018-05-19T03:05:07.799Z,11.50
2018-05-19T03:07:34.109Z,11.60
2018-05-19T03:10:00.477Z,11.40
2018-05-19T03:12:26.824Z,11.70
2018-05-19T03:14:53.218Z,11.80
2018-05-19T03:17:19.599Z,11.80
2018-05-19T03:19:46.731Z,12.00
2018-05-19T03:22:13.064Z,11.90
2018-05-19T03:24:40.206Z,12.10
2018-05-19T03:27:06.557Z,12.10
2018-05-19T03:29:34.863Z,12.00
2018-05-19T03:32:01.289Z,12.00
2018-05-19T03:34:27.649Z,12.00
2018-05-19T03:36:54.028Z,11.90
2018-05-19T03:39:20.473Z,11.90
2018-05-19T03:41:46.872Z,11.80
2018-05-19T03:44:13.254Z,11.90
2018-05-19T03:46:39.636Z,11.90
2018-05-19T03:49:06.025Z,12.10
2018-05-19T03:51:32.475Z,12.10
2018-05-19T03:53:58.899Z,12.10
2018-05-19T03:56:25.214Z,12.20
2018-05-19T03:59:03.775Z,12.10
2018-05-19T04:01:42.401Z,12.20
2018-05-19T04:04:08.935Z,12.10
2018-05-19T04:06:35.289Z,12.10
2018-05-19T04:09:01.705Z,12.20
2018-05-19T04:11:28.062Z,12.20
2018-05-19T04:13:54.438Z,12.10
2018-05-19T04:16:20.775Z,12.30
2018-05-19T04:18:47.153Z,12.30
2018-05-19T04:21:13.547Z,12.20
2018-05-19T04:23:39.963Z,12.30
2018-05-19T04:26:06.294Z,12.30
2018-05-19T04:28:32.659Z,12.40
2018-05-19T04:30:59.789Z,12.40
2018-05-19T04:33:26.158Z,12.40
2018-05-19T04:35:52.524Z,12.40
2018-05-19T04:38:18.847Z,12.50
2018-05-19T04:40:45.205Z,12.50
2018-05-19T04:43:11.646Z,12.60
2018-05-19T04:45:38.013Z,12.50
2018-05-19T04:48:05.110Z,12.70
2018-05-19T04:50:31.518Z,12.60
2018-05-19T04:52:57.821Z,12.70
2018-05-19T04:55:25.035Z,12.80
2018-05-19T04:57:51.354Z,12.80
2018-05-19T05:00:17.730Z,12.80
2018-05-19T05:02:44.113Z,12.70
2018-05-19T05:05:10.474Z,12.70
2018-05-19T05:07:36.892Z,12.80
2018-05-19T05:10:03.323Z,12.60
2018-05-19T05:12:29.681Z,12.70
2018-05-19T05:14:56.050Z,12.80
2018-05-19T05:17:22.376Z,12.80
2018-05-19T05:19:48.875Z,12.80
2018-05-19T05:22:15.949Z,12.90
2018-05-19T05:24:42.326Z,12.90
2018-05-19T05:27:08.754Z,12.90
2018-05-19T05:29:35.062Z,13.00
2018-05-19T05:32:01.525Z,12.90
2018-05-19T05:34:27.885Z,13.00
2018-05-19T05:36:55.002Z,12.90
2018-05-19T05:39:22.312Z,12.90
2018-05-19T05:41:49.398Z,13.00
2018-05-19T05:44:15.761Z,13.00
2018-05-19T05:46:42.861Z,13.00
2018-05-19T05:49:09.234Z,13.00
2018-05-19T05:51:37.065Z,12.90
2018-05-19T05:54:04.510Z,12.90
2018-05-19T05:56:32.262Z,13.00
2018-05-19T05:58:58.631Z,13.10
2018-05-19T06:01:24.985Z,13.00
2018-05-19T06:03:51.347Z,13.10
2018-05-19T06:06:17.788Z,13.10
2018-05-19T06:08:44.912Z,13.10
2018-05-19T06:11:11.993Z,13.10
2018-05-19T06:13:38.332Z,13.10
2018-05-19T06:16:04.694Z,13.20
2018-05-19T06:18:31.835Z,13.30
2018-05-19T06:20:58.265Z,13.30
2018-05-19T06:23:24.627Z,13.30
2018-05-19T06:25:51.042Z,13.40
2018-05-19T06:28:17.378Z,13.40
2018-05-19T06:30:44.483Z,13.40
2018-05-19T06:33:10.857Z,13.40
2018-05-19T06:35:37.225Z,13.50
2018-05-19T06:38:03.582Z,13.70
2018-05-19T06:40:30.029Z,13.60
2018-05-19T06:42:57.873Z,13.90
2018-05-19T06:45:24.331Z,13.90
2018-05-19T06:47:50.795Z,14.00
2018-05-19T06:50:17.193Z,13.90
2018-05-19T06:52:43.534Z,14.00
2018-05-19T06:55:09.921Z,14.40
2018-05-19T06:57:36.302Z,14.30
2018-05-19T07:00:03.126Z,14.40
2018-05-19T07:02:29.767Z,14.50
2018-05-19T07:05:02.990Z,14.60
2018-05-19T07:07:29.373Z,14.50
2018-05-19T07:09:55.711Z,14.40
2018-05-19T07:12:22.072Z,14.60
2018-05-19T07:14:49.166Z,14.90
2018-05-19T07:17:15.603Z,14.90
2018-05-19T07:19:41.950Z,14.90
2018-05-19T07:22:08.392Z,15.10
2018-05-19T07:24:34.775Z,15.30
2018-05-19T07:27:01.135Z,15.50
2018-05-19T07:29:27.470Z,15.40
2018-05-19T07:31:53.813Z,15.30
2018-05-19T07:34:20.248Z,15.40
2018-05-19T07:36:47.389Z,15.60
2018-05-19T07:39:13.724Z,15.60
2018-05-19T07:41:40.160Z,15.70
2018-05-19T07:44:06.591Z,15.70
2018-05-19T07:46:32.976Z,15.90
2018-05-19T07:48:59.308Z,15.90
2018-05-19T07:51:25.682Z,15.80
2018-05-19T07:53:52.117Z,16.20
2018-05-19T07:56:18.483Z,16.30
2018-05-19T07:58:45.557Z,16.20
2018-05-19T08:01:12.848Z,16.20
2018-05-19T08:03:39.177Z,16.20
2018-05-19T08:06:05.579Z,16.40
2018-05-19T08:08:32.727Z,16.50
2018-05-19T08:10:59.093Z,16.30
2018-05-19T08:13:25.423Z,16.40
2018-05-19T08:15:51.821Z,16.50
2018-05-19T08:18:18.173Z,16.60
2018-05-19T08:20:44.500Z,16.40
2018-05-19T08:23:10.872Z,16.50
2018-05-19T08:25:37.957Z,16.70
2018-05-19T08:28:04.318Z,16.60
2018-05-19T08:30:30.746Z,16.60
2018-05-19T08:32:58.437Z,16.60
2018-05-19T08:35:25.501Z,16.60
2018-05-19T08:37:52.625Z,16.70
2018-05-19T08:40:18.955Z,16.60
2018-05-19T08:42:45.477Z,16.60
2018-05-19T08:45:11.785Z,16.50
2018-05-19T08:47:38.397Z,16.40
2018-05-19T08:50:05.495Z,16.60
2018-05-19T08:52:31.859Z,16.60
2018-05-19T08:54:58.223Z,16.50
2018-05-19T08:57:24.567Z,16.60
2018-05-19T08:59:50.950Z,16.80
2018-05-19T09:02:18.064Z,16.70
2018-05-19T09:04:44.413Z,16.60
2018-05-19T09:07:11.534Z,16.60
2018-05-19T09:09:38.546Z,16.50
2018-05-19T09:12:04.890Z,16.70
2018-05-19T09:14:31.262Z,16.60
2018-05-19T09:16:58.435Z,16.80
2018-05-19T09:19:25.550Z,16.80
2018-05-19T09:21:51.919Z,16.70
2018-05-19T09:24:19.044Z,17.00
2018-05-19T09:26:46.895Z,16.80
2018-05-19T09:29:13.316Z,16.80
2018-05-19T09:31:39.694Z,17.00
2018-05-19T09:34:06.068Z,17.10
2018-05-19T09:36:32.433Z,17.20
2018-05-19T09:38:58.832Z,17.20
2018-05-19T09:41:25.283Z,17.20
2018-05-19T09:43:51.718Z,17.40
2018-05-19T09:46:18.967Z,17.40
2018-05-19T09:48:46.861Z,17.50
2018-05-19T09:51:13.938Z,17.60
2018-05-19T09:53:40.313Z,17.60
2018-05-19T09:56:06.656Z,17.90
2018-05-19T09:58:33.059Z,17.80
2018-05-19T10:00:59.407Z,17.90
2018-05-19T10:03:25.780Z,17.90
2018-05-19T10:05:52.873Z,18.00
2018-05-19T10:08:19.261Z,18.00
2018-05-19T10:10:45.633Z,18.10
2018-05-19T10:13:12.038Z,18.20
2018-05-19T10:15:38.391Z,18.20
2018-05-19T10:18:04.810Z,18.20
2018-05-19T10:20:31.152Z,18.20
2018-05-19T10:22:57.634Z,18.30
2018-05-19T10:25:23.935Z,18.30
2018-05-19T10:27:50.296Z,18.30
2018-05-19T10:30:17.372Z,18.50
2018-05-19T10:32:43.804Z,18.50
2018-05-19T10:35:10.515Z,18.60
2018-05-19T10:37:37.787Z,18.70
2018-05-19T10:40:04.148Z,18.70
2018-05-19T10:42:30.533Z,18.80
2018-05-19T10:44:56.957Z,18.80
2018-05-19T10:47:24.052Z,18.60
2018-05-19T10:49:50.614Z,18.60
2018-05-19T10:52:16.982Z,18.70
2018-05-19T10:54:43.378Z,19.00
2018-05-19T10:57:09.740Z,19.10
2018-05-19T10:59:36.893Z,19.20
2018-05-19T11:02:03.992Z,19.30
2018-05-19T11:04:30.385Z,19.20
2018-05-19T11:06:56.749Z,19.20
2018-05-19T11:09:23.118Z,19.30
2018-05-19T11:11:49.461Z,19.30
2018-05-19T11:14:16.596Z,19.40
2018-05-19T11:16:42.930Z,19.30
2018-05-19T11:19:09.292Z,19.40
2018-05-19T11:21:35.674Z,19.30
2018-05-19T11:24:02.037Z,19.20
2018-05-19T11:26:29.132Z,19.50
2018-05-19T11:28:55.505Z,19.50
2018-05-19T11:31:21.869Z,19.60
2018-05-19T11:33:48.217Z,19.80
2018-05-19T11:36:16.134Z,19.70
2018-05-19T11:38:42.597Z,19.80
2018-05-19T11:41:08.953Z,19.70
2018-05-19T11:43:35.347Z,19.80
2018-05-19T11:46:01.758Z,19.90
2018-05-19T11:48:28.145Z,19.90
2018-05-19T11:50:54.470Z,20.10
2018-05-19T11:53:20.835Z,20.10
2018-05-19T11:55:47.924Z,20.40
2018-05-19T11:58:14.319Z,20.30
2018-05-19T12:00:41.462Z,20.60
2018-05-19T12:03:08.546Z,20.70
2018-05-19T12:05:35.661Z,20.60
2018-05-19T12:08:02.000Z,20.50
2018-05-19T12:10:28.519Z,20.60
2018-05-19T12:12:54.851Z,20.50
2018-05-19T12:15:21.245Z,20.40
2018-05-19T12:17:47.583Z,20.70
2018-05-19T12:20:13.969Z,20.80
2018-05-19T12:22:40.400Z,20.90
2018-05-19T12:25:06.908Z,21.10
2018-05-19T12:27:33.250Z,21.20
2018-05-19T12:30:00.330Z,21.30
2018-05-19T12:32:26.644Z,21.20
2018-05-19T12:34:53.626Z,21.10
2018-05-19T12:37:19.973Z,21.10
2018-05-19T12:39:46.530Z,21.20
2018-05-19T12:42:12.954Z,21.40
2018-05-19T12:44:39.303Z,21.50
2018-05-19T12:47:05.642Z,21.40
2018-05-19T12:49:32.054Z,21.60
2018-05-19T12:51:58.415Z,21.80
2018-05-19T12:54:25.635Z,21.80
2018-05-19T12:56:54.066Z,21.90
2018-05-19T12:59:20.426Z,21.80
2018-05-19T13:01:46.816Z,22.10
2018-05-19T13:04:13.922Z,22.30
2018-05-19T13:06:40.269Z,22.30
2018-05-19T13:09:06.639Z,22.30
2018-05-19T13:11:32.992Z,22.30
2018-05-19T13:13:59.389Z,22.50
2018-05-19T13:16:26.454Z,22.90
2018-05-19T13:18:52.789Z,22.90
2018-05-19T13:21:19.130Z,23.20
2018-05-19T13:23:45.457Z,23.30
2018-05-19T13:26:11.845Z,23.20
2018-05-19T13:28:38.921Z,23.10
2018-05-19T13:31:05.281Z,23.10
2018-05-19T13:33:31.607Z,23.40
2018-05-19T13:35:57.969Z,23.50
2018-05-19T13:38:24.406Z,23.40
2018-05-19T13:40:50.775Z,23.40
2018-05-19T13:43:17.131Z,23.60
2018-05-19T13:45:43.489Z,23.40
2018-05-19T13:48:09.804Z,23.50
2018-05-19T13:50:36.154Z,23.40
2018-05-19T13:53:02.497Z,23.70
2018-05-19T13:55:28.870Z,24.00
2018-05-19T13:57:55.229Z,23.80
2018-05-19T14:00:21.606Z,23.70
2018-05-19T14:02:47.946Z,23.70
2018-05-19T14:05:14.367Z,24.10
2018-05-19T14:07:40.683Z,24.60
2018-05-19T14:10:07.069Z,25.10
2018-05-19T14:12:33.372Z,25.20
2018-05-19T14:14:59.791Z,25.20
2018-05-19T14:17:30.711Z,24.80
2018-05-19T14:19:57.065Z,24.90
2018-05-19T14:22:23.456Z,25.00
2018-05-19T14:24:49.814Z,25.40
2018-05-19T14:27:16.138Z,25.80
2018-05-19T14:29:42.477Z,26.10
2018-05-19T14:32:09.554Z,26.40
2018-05-19T14:34:35.915Z,26.30
2018-05-19T14:37:02.251Z,26.40
2018-05-19T14:39:28.580Z,26.20
2018-05-19T14:41:54.941Z,26.40
2018-05-19T14:44:21.985Z,26.40
2018-05-19T14:46:48.342Z,26.30
2018-05-19T14:49:14.652Z,26.60
2018-05-19T14:51:41.770Z,27.10
2018-05-19T14:54:08.860Z,27.70
2018-05-19T14:56:35.298Z,27.60
2018-05-19T14:59:02.517Z,27.60
2018-05-19T15:01:28.878Z,27.90
2018-05-19T15:03:55.247Z,28.30
2018-05-19T15:06:21.601Z,28.50
2018-05-19T15:08:47.923Z,29.30
2018-05-19T15:11:14.312Z,30.10
2018-05-19T15:13:40.642Z,30.80
2018-05-19T15:16:07.011Z,30.90
2018-05-19T15:18:33.345Z,31.40
2018-05-19T15:20:59.702Z,31.40
2018-05-19T15:23:28.213Z,31.70
2018-05-19T15:25:54.571Z,32.40
2018-05-19T15:28:21.841Z,32.40
2018-05-19T15:30:48.986Z,32.10
2018-05-19T15:33:15.315Z,32.00
2018-05-19T15:35:41.653Z,32.10
2018-05-19T15:38:07.946Z,32.30
2018-05-19T15:40:34.285Z,32.30
2018-05-19T15:43:00.596Z,31.80
2018-05-19T15:45:26.964Z,31.50
2018-05-19T15:47:53.295Z,31.90
2018-05-19T15:50:19.636Z,31.80
2018-05-19T15:52:46.727Z,32.20
2018-05-19T15:55:13.032Z,32.20
2018-05-19T15:57:40.142Z,32.70
2018-05-19T16:00:06.767Z,32.70
2018-05-19T16:02:33.225Z,32.40
2018-05-19T16:04:59.655Z,32.50
2018-05-19T16:07:26.028Z,33.10
2018-05-19T16:09:52.381Z,33.80
2018-05-19T16:12:18.738Z,33.20
2018-05-19T16:14:45.089Z,32.60
2018-05-19T16:17:12.201Z,33.60
2018-05-19T16:19:38.659Z,33.50
2018-05-19T16:22:05.042Z,33.40
2018-05-19T16:24:31.363Z,34.10
2018-05-19T16:26:57.725Z,33.50
2018-05-19T16:29:24.072Z,33.80
2018-05-19T16:31:50.430Z,33.40
2018-05-19T16:34:16.773Z,33.10
2018-05-19T16:36:43.858Z,33.80
2018-05-19T16:39:10.278Z,33.80
2018-05-19T16:41:36.617Z,34.00
2018-05-19T16:44:02.949Z,34.30
2018-05-19T16:46:29.278Z,33.80
2018-05-19T16:48:55.595Z,33.30
2018-05-19T16:51:21.944Z,33.30
2018-05-19T16:53:48.265Z,33.60
2018-05-19T16:56:14.631Z,33.60
2018-05-19T16:58:40.957Z,33.80
2018-05-19T17:01:07.304Z,34.00
2018-05-19T17:03:33.612Z,33.80
2018-05-19T17:05:59.946Z,33.30
2018-05-19T17:08:26.383Z,33.20
2018-05-19T17:10:52.690Z,33.30
2018-05-19T17:13:19.027Z,33.50
2018-05-19T17:15:45.342Z,33.20
2018-05-19T17:18:11.680Z,32.90
2018-05-19T17:20:38.009Z,32.70
2018-05-19T17:23:04.361Z,32.80
2018-05-19T17:25:30.722Z,33.10
2018-05-19T17:27:57.833Z,32.70
2018-05-19T17:30:24.157Z,32.70
2018-05-19T17:32:50.515Z,32.40
2018-05-19T17:35:19.306Z,32.20
2018-05-19T17:37:45.649Z,32.20
2018-05-19T17:40:12.804Z,32.30
2018-05-19T17:42:39.880Z,32.50
2018-05-19T17:45:06.264Z,32.50
2018-05-19T17:47:32.622Z,31.80
2018-05-19T17:49:58.938Z,31.50
2018-05-19T17:52:25.295Z,31.50
2018-05-19T17:54:51.597Z,30.80
2018-05-19T17:57:18.696Z,31.00
2018-05-19T17:59:45.100Z,31.00
2018-05-19T18:02:12.242Z,30.60
2018-05-19T18:04:38.576Z,30.60
2018-05-19T18:07:05.647Z,30.10
2018-05-19T18:09:31.970Z,30.10
2018-05-19T18:11:59.626Z,29.60
2018-05-19T18:14:25.962Z,29.50
2018-05-19T18:16:52.306Z,29.40
2018-05-19T18:19:18.757Z,28.60
2018-05-19T18:21:45.124Z,27.80
2018-05-19T18:24:12.177Z,27.90
2018-05-19T18:26:39.239Z,27.10
2018-05-19T18:29:05.631Z,27.00
2018-05-19T18:31:31.958Z,26.80
2018-05-19T18:33:58.295Z,27.00
2018-05-19T18:36:24.626Z,26.60
2018-05-19T18:38:50.983Z,26.70
2018-05-19T18:41:18.030Z,26.30
2018-05-19T18:43:45.129Z,26.10
2018-05-19T18:46:12.507Z,26.10
2018-05-19T18:48:38.945Z,26.10
2018-05-19T18:51:06.038Z,25.50
2018-05-19T18:53:32.382Z,25.40
2018-05-19T18:55:58.827Z,25.40
2018-05-19T18:58:25.181Z,24.80
2018-05-19T19:00:52.986Z,24.10
2018-05-19T19:03:19.309Z,24.10
2018-05-19T19:05:45.675Z,23.70
2018-05-19T19:08:12.118Z,23.70
2018-05-19T19:10:38.453Z,23.40
2018-05-19T19:13:04.805Z,23.20
2018-05-19T19:15:31.175Z,23.60
2018-05-19T19:17:57.530Z,23.30
2018-05-19T19:20:23.853Z,23.00
2018-05-19T19:22:50.211Z,22.80
2018-05-19T19:25:16.640Z,22.20
2018-05-19T19:27:43.074Z,22.10
2018-05-19T19:30:09.677Z,22.50
2018-05-19T19:32:36.031Z,22.40
2018-05-19T19:35:02.359Z,22.30
2018-05-19T19:37:28.825Z,21.80
2018-05-19T19:39:56.045Z,21.70
2018-05-19T19:42:22.478Z,21.70
2018-05-19T19:44:48.831Z,21.90
2018-05-19T19:47:15.228Z,21.40
2018-05-19T19:49:41.773Z,21.70
2018-05-19T19:52:08.164Z,21.40
2018-05-19T19:54:34.802Z,21.20
2018-05-19T19:57:01.129Z,21.00
2018-05-19T19:59:28.389Z,21.00
2018-05-19T20:01:54.773Z,20.90
2018-05-19T20:04:21.187Z,21.10
2018-05-19T20:06:48.385Z,21.10
2018-05-19T20:09:15.609Z,21.00
2018-05-19T20:11:42.163Z,20.90
2018-05-19T20:14:09.568Z,20.60
2018-05-19T20:16:35.912Z,20.50
2018-05-19T20:19:02.452Z,20.30
2018-05-19T20:21:28.958Z,20.40
2018-05-19T20:23:55.315Z,20.30
2018-05-19T20:26:21.658Z,20.50
2018-05-19T20:28:48.002Z,20.30
2018-05-19T20:31:14.316Z,20.20
2018-05-19T20:33:41.413Z,20.00
2018-05-19T20:36:07.727Z,19.90
2018-05-19T20:38:34.841Z,19.90
2018-05-19T20:41:01.154Z,19.80
2018-05-19T20:43:27.529Z,20.00
2018-05-19T20:45:54.611Z,19.60
2018-05-19T20:48:20.970Z,19.60
2018-05-19T20:50:47.293Z,19.90
2018-05-19T20:53:13.641Z,19.60
2018-05-19T20:55:39.954Z,19.60
2018-05-19T20:58:06.347Z,19.40
2018-05-19T21:00:32.673Z,19.40
2018-05-19T21:02:59.009Z,19.80
2018-05-19T21:05:25.353Z,19.40
2018-05-19T21:07:51.684Z,19.20
2018-05-19T21:10:18.030Z,19.00
2018-05-19T21:12:45.862Z,18.90
2018-05-19T21:15:12.247Z,18.90
2018-05-19T21:17:38.569Z,18.80
2018-05-19T21:20:05.511Z,18.90
2018-05-19T21:22:31.842Z,18.90
2018-05-19T21:24:58.701Z,19.00
2018-05-19T21:27:25.016Z,18.90
2018-05-19T21:29:51.930Z,18.60
2018-05-19T21:32:18.553Z,18.80
2018-05-19T21:34:44.938Z,18.60
2018-05-19T21:37:11.300Z,18.80
2018-05-19T21:39:38.408Z,18.90
2018-05-19T21:42:04.751Z,18.80
2018-05-19T21:44:31.728Z,18.70
2018-05-19T21:46:58.807Z,18.40
2018-05-19T21:49:25.149Z,18.30
2018-05-19T21:51:51.497Z,18.30
2018-05-19T21:54:17.845Z,18.60
2018-05-19T21:56:46.000Z,18.10
2018-05-19T21:59:12.423Z,18.00
2018-05-19T22:01:39.425Z,18.00
2018-05-19T22:04:05.901Z,18.10
2018-05-19T22:06:32.279Z,18.10
2018-05-19T22:08:58.643Z,17.60
2018-05-19T22:11:24.966Z,17.40
2018-05-19T22:13:51.335Z,17.70
2018-05-19T22:16:17.709Z,17.50
2018-05-19T22:18:44.049Z,17.50
2018-05-19T22:21:10.398Z,17.50
2018-05-19T22:23:36.720Z,17.40
2018-05-19T22:26:03.132Z,17.30
2018-05-19T22:28:29.439Z,17.20
2018-05-19T22:30:56.019Z,16.90
2018-05-19T22:33:23.047Z,16.90
2018-05-19T22:35:49.385Z,17.20
2018-05-19T22:38:15.739Z,17.20
2018-05-19T22:40:42.085Z,17.10
2018-05-19T22:43:09.912Z,17.00
2018-05-19T22:45:36.277Z,17.00
2018-05-19T22:48:02.783Z,17.30
2018-05-19T22:50:29.148Z,17.10
2018-05-19T22:52:55.454Z,17.00
2018-05-19T22:55:21.803Z,17.10
2018-05-19T22:57:48.129Z,17.00
2018-05-19T23:00:14.767Z,16.80
2018-05-19T23:02:41.793Z,16.70
2018-05-19T23:05:08.162Z,16.60
2018-05-19T23:07:35.319Z,16.60
2018-05-19T23:10:01.725Z,16.50
2018-05-19T23:12:28.068Z,16.60
2018-05-19T23:14:54.407Z,16.50
2018-05-19T23:17:20.761Z,16.60
2018-05-19T23:19:47.823Z,16.40
2018-05-19T23:22:14.206Z,16.40
2018-05-19T23:24:40.521Z,16.30
2018-05-19T23:27:06.909Z,16.00
2018-05-19T23:29:34.010Z,16.40
2018-05-19T23:32:01.122Z,16.10
2018-05-19T23:34:27.493Z,16.00
2018-05-19T23:36:53.831Z,16.00
2018-05-19T23:39:20.957Z,16.20
2018-05-19T23:41:47.430Z,16.20
2018-05-19T23:44:13.828Z,16.30
2018-05-19T23:46:40.204Z,16.50
2018-05-19T23:49:06.548Z,16.30
2018-05-19T23:51:32.961Z,16.30
2018-05-19T23:54:00.053Z,16.30
2018-05-19T23:56:26.437Z,16.20
2018-05-19T23:58:52.802Z,16.20
